CDT,Max TemperatureF,Mean TemperatureF,Min TemperatureF,Max Dew PointF,MeanDew PointF,Min DewpointF,Max Humidity, Mean Humidity, Min Humidity, Max Sea Level PressureIn, Mean Sea Level PressureIn, Min Sea Level PressureIn, Max VisibilityMiles, Mean VisibilityMiles, Min VisibilityMiles, Max Wind SpeedMPH, Mean Wind SpeedMPH, Max Gust SpeedMPH,PrecipitationIn, CloudCover, Events, WindDirDegrees
2012-10-1,62,60,57,57,54,52,88,82,68,29.81,29.72,29.65,10,9,5,15,7,23,0.14,6,Rain-Thunderstorm,360
2012-10-2,68,62,55,55,52,48,88,74,52,29.94,29.81,29.72,10,10,10,12,7,17,0.00,8,,326
2012-10-3,78,63,48,61,54,46,94,69,39,30.12,30.02,29.94,10,9,0,14,4,21,0.02,2,Fog-Thunderstorm,187
2012-10-4,82,68,55,61,57,52,94,71,39,30.24,30.17,30.12,10,9,1,12,4,16,0.00,1,,192
2012-10-5,68,56,44,61,51,41,94,80,64,30.19,30.12,30.02,10,8,0,16,6,24,0.61,5,Fog-Rain-Thunderstorm,2
2012-10-6,59,49,39,43,37,30,93,68,36,30.26,30.21,30.17,10,10,10,13,6,18,0.00,4,Thunderstorm,346
2012-10-7,59,50,42,41,37,34,81,65,39,30.27,30.23,30.18,10,10,5,10,4,17,0.00,3,,329
2012-10-8,62,52,41,46,40,34,93,68,34,30.27,30.19,30.13,10,10,0,7,1,,0.00,2,Fog,246
2012-10-9,66,52,37,50,42,36,94,70,43,30.15,30.07,29.98,10,9,1,14,3,20,0.00,1,,198
2012-10-10,62,52,39,52,38,28,87,57,27,30.27,30.19,30.02,10,10,10,17,7,22,0.00,3,,324
2012-10-11,64,50,35,50,39,32,93,66,37,30.30,30.25,30.18,10,10,10,8,2,,0.00,5,Thunderstorm,171
2012-10-12,64,58,53,54,52,48,94,82,68,30.34,30.26,30.18,10,8,0,14,5,25,1.49,5,Rain-Thunderstorm,58
2012-10-13,82,70,57,68,61,54,94,76,51,30.24,30.10,29.93,10,6,0,15,5,22,0.01,5,Fog,164
2012-10-14,75,64,51,64,59,48,88,73,50,29.95,29.87,29.79,10,9,0,22,13,38,0.18,4,Fog-Rain,203
2012-10-15,75,60,44,54,47,43,94,69,31,30.04,29.98,29.95,10,9,0,7,3,,0.00,0,Fog,286
2012-10-16,80,63,46,57,50,45,94,66,34,29.98,29.86,29.75,10,9,0,14,4,20,0.00,0,Fog,184
2012-10-17,80,70,59,61,54,50,83,64,39,29.78,29.63,29.38,10,9,0,23,11,39,1.66,5,Rain-Thunderstorm,180
2012-10-18,68,60,51,50,41,28,88,55,24,29.75,29.70,29.63,10,10,10,18,8,31,0.11,1,,228
2012-10-19,62,56,51,43,40,36,71,55,42,29.84,29.71,29.63,10,10,10,16,9,24,0.00,6,,249
2012-10-20,68,54,41,48,44,37,93,70,40,29.95,29.90,29.83,10,10,10,10,2,,0.00,,,220
2012-10-21,78,61,44,61,51,43,94,69,47,30.03,29.98,29.95,10,10,10,14,3,20,0.00,,,174
2012-10-22,82,71,60,61,52,43,72,53,25,30.09,30.04,30.01,10,10,10,21,9,31,0.00,,,181
2012-10-23,82,68,55,61,55,48,82,60,42,30.06,30.01,29.96,10,10,10,14,6,20,0.00,1,,180
2012-10-24,82,71,60,63,58,54,82,64,45,30.08,30.02,29.96,10,10,10,15,7,21,0.00,1,,177
2012-10-25,82,68,51,63,59,46,82,65,48,30.07,29.94,29.88,10,10,10,20,9,31,0.00,3,Rain,177
2012-10-26,51,46,41,46,39,36,87,77,62,30.26,30.20,30.06,10,8,1,22,13,28,0.55,6,Rain,353
2012-10-27,57,48,39,36,34,32,81,63,38,30.23,30.19,30.13,10,10,10,18,11,26,0.00,0,,352
2012-10-28,57,48,39,37,33,32,81,62,41,30.21,30.18,30.15,10,10,10,17,10,22,0.00,0,,347
2012-10-29,59,48,37,36,30,23,81,54,25,30.27,30.19,30.07,10,10,10,18,9,26,0.00,0,,336
2012-10-30,62,50,37,30,27,23,70,45,22,30.07,29.95,29.86,10,10,10,18,8,30,0.00,0,,296
2012-10-31,62,50,37,34,27,14,75,48,15,29.99,29.94,29.90,10,10,10,14,6,21,0.00,0,,290